createdAt,value
2023-03-14T00:02:11.972Z,11.1
2023-03-14T00:22:16.885Z,11
2023-03-14T00:32:19.106Z,10.9
2023-03-14T00:42:21.131Z,10.9
2023-03-14T00:52:23.202Z,11.1
2023-03-14T01:02:25.076Z,11.2
2023-03-14T01:12:27.319Z,11.1
2023-03-14T01:22:29.082Z,9.5
2023-03-14T01:32:31.343Z,9
2023-03-14T01:42:33.472Z,8.8
2023-03-14T01:52:35.185Z,8.7
2023-03-14T02:02:37.275Z,8.7
2023-03-14T02:12:39.628Z,8.7
2023-03-14T02:32:43.943Z,8.8
2023-03-14T02:42:45.904Z,9
2023-03-14T02:52:47.794Z,9.1
2023-03-14T03:12:51.809Z,9
2023-03-14T03:22:53.658Z,9.1
2023-03-14T03:32:56.210Z,9.2
2023-03-14T03:42:58.045Z,9.2
2023-03-14T04:03:02.303Z,9.2
2023-03-14T04:13:04.471Z,9.1
2023-03-14T04:23:06.446Z,9.2
2023-03-14T04:33:08.866Z,9
2023-03-14T04:43:10.742Z,9
2023-03-14T04:53:12.956Z,8.8
2023-03-14T05:03:14.830Z,8.4
2023-03-14T05:13:16.797Z,8.1
2023-03-14T05:23:19.230Z,7.7
2023-03-14T05:33:21.009Z,7.6
2023-03-14T05:43:22.905Z,7.6
2023-03-14T05:53:25.291Z,7.5
2023-03-14T06:03:27.408Z,7.4
2023-03-14T06:13:30.018Z,7.4
2023-03-14T06:23:32.124Z,7.4
2023-03-14T06:33:34.430Z,7.4
2023-03-14T06:43:36.417Z,7.5
2023-03-14T06:53:38.823Z,7.6
2023-03-14T07:03:40.654Z,7.8
2023-03-14T07:13:42.927Z,8
2023-03-14T07:23:45.368Z,8.2
2023-03-14T07:33:47.106Z,8.3
2023-03-14T07:43:49.289Z,8.6
2023-03-14T07:53:51.703Z,8.5
2023-03-14T08:03:53.753Z,8.8
2023-03-14T08:13:55.489Z,8.9
2023-03-14T08:23:57.361Z,8.9
2023-03-14T08:33:59.301Z,9
2023-03-14T08:44:01.257Z,9
2023-03-14T08:54:03.454Z,9.1
2023-03-14T09:04:05.544Z,9.4
2023-03-14T09:14:07.637Z,9.1
2023-03-14T09:24:09.820Z,9.1
2023-03-14T09:34:12.082Z,9.3
2023-03-14T09:44:14.269Z,8.2
2023-03-14T09:54:16.531Z,7.8
2023-03-14T10:04:18.203Z,7.6
2023-03-14T10:24:22.186Z,7.2
2023-03-14T10:34:24.265Z,6.8
2023-03-14T10:44:25.972Z,6.5
2023-03-14T10:54:28.054Z,6.1
2023-03-14T11:04:30.446Z,5.9
2023-03-14T11:14:32.760Z,5.6
2023-03-14T11:24:34.839Z,5.5
2023-03-14T11:34:36.614Z,5.2
2023-03-14T11:44:38.579Z,5.3
2023-03-14T11:54:41.161Z,5.2
2023-03-14T12:04:44.348Z,5.1
2023-03-14T12:14:45.412Z,5.4
2023-03-14T12:34:49.606Z,5.8
2023-03-14T12:44:52.182Z,5.5
2023-03-14T12:54:54.214Z,4
2023-03-14T13:04:56.663Z,4.5
2023-03-14T13:14:59.256Z,4.9
2023-03-14T13:25:01.727Z,5.3
2023-03-14T13:35:03.636Z,5.4
2023-03-14T13:45:05.640Z,5.8
2023-03-14T13:55:07.937Z,6.2
2023-03-14T14:05:09.888Z,7
2023-03-14T14:05:16.787Z,7
2023-03-14T14:15:19.234Z,7.3
2023-03-14T14:25:21.602Z,7.4
2023-03-14T14:35:23.548Z,6.8
2023-03-14T14:45:25.980Z,7
2023-03-14T14:55:27.834Z,6.8
2023-03-14T15:05:29.903Z,6.6
2023-03-14T15:15:31.570Z,6.5
2023-03-14T15:25:51.733Z,6.9
2023-03-14T15:35:36.401Z,6.7
2023-03-14T15:45:38.753Z,6.6
2023-03-14T15:55:40.529Z,6.4
2023-03-14T16:05:42.696Z,6.2
2023-03-14T16:15:44.820Z,6
2023-03-14T16:25:46.857Z,5.8
2023-03-14T16:35:48.680Z,5.7
2023-03-14T16:45:51.154Z,5.6
2023-03-14T16:55:53.690Z,5.6
2023-03-14T17:05:55.377Z,5.3
2023-03-14T17:15:57.967Z,5.1
2023-03-14T17:26:00.060Z,5
2023-03-14T17:36:02.357Z,4.9
2023-03-14T17:46:04.022Z,4.7
2023-03-14T17:56:05.629Z,4.6
2023-03-14T18:06:08.123Z,4.5
2023-03-14T18:16:10.536Z,4.4
2023-03-14T18:26:13.184Z,4.4
2023-03-14T18:36:15.223Z,4.2
2023-03-14T18:46:17.337Z,4.1
2023-03-14T18:56:19.541Z,4
2023-03-14T19:06:21.933Z,3.9
2023-03-14T19:16:24.554Z,3.8
2023-03-14T19:26:26.988Z,3.7
2023-03-14T19:36:29.302Z,3.6
2023-03-14T19:46:31.416Z,3.6
2023-03-14T19:56:34.041Z,3.7
2023-03-14T20:06:36.384Z,3.6
2023-03-14T20:16:38.456Z,3.5
2023-03-14T20:36:42.576Z,3.3
2023-03-14T20:46:44.149Z,3.1
2023-03-14T21:06:48.174Z,2.8
2023-03-14T21:16:49.717Z,2.8
2023-03-14T21:26:51.948Z,2.7
2023-03-14T21:36:54.271Z,2.5
2023-03-14T21:46:56.096Z,2.3
2023-03-14T21:56:58.597Z,2.3
2023-03-14T22:17:02.792Z,2.3
2023-03-14T22:27:05.247Z,2.1
2023-03-14T22:37:07.421Z,2.3
2023-03-14T22:47:09.964Z,2.4
2023-03-14T22:57:12.463Z,2.6
2023-03-14T23:07:14.409Z,2.6
2023-03-14T23:17:16.780Z,2.6
2023-03-14T23:27:18.935Z,2.7
2023-03-14T23:37:21.077Z,2.9
2023-03-14T23:47:23.552Z,1.9
2023-03-14T23:57:25.221Z,0.4
